Time;durP1;ratioP1;P1;durP2;ratioP2;P2;SDS_P1;SDS_P2;PMS_P1;PMS_P2;Temp;Humidity;BMP_temperature;BMP_pressure;BME280_temperature;BME280_humidity;BME280_pressure;Samples;Min_cycle;Max_cycle;Signal;HPM_P1;HPM_P2
2021/08/04 00:01:17;;;;;;;1.50;1.40;;;;;;;20.94;56.89;99182.25;4959336;28;20239;-87
2021/08/04 00:03:44;;;;;;;1.57;1.40;;;;;;;20.88;57.05;99170.63;4959270;28;20303;-87
2021/08/04 00:06:13;;;;;;;1.40;1.30;;;;;;;20.82;56.91;99173.72;4991064;28;20232;-87
2021/08/04 00:08:40;;;;;;;1.70;1.30;;;;;;;20.83;57.24;99184.34;4959626;28;20260;-87
2021/08/04 00:11:07;;;;;;;1.70;1.20;;;;;;;20.97;56.64;99181.66;4959721;28;20323;-87
2021/08/04 00:13:33;;;;;;;2.60;1.20;;;;;;;21.04;56.44;99193.75;4943709;28;20314;-87
2021/08/04 00:16:00;;;;;;;1.63;1.43;;;;;;;20.91;56.90;99180.13;4975318;28;20229;-87
2021/08/04 00:18:27;;;;;;;1.37;1.27;;;;;;;20.84;57.36;99175.06;4959098;28;20291;-88
2021/08/04 00:20:54;;;;;;;1.20;1.20;;;;;;;20.93;56.83;99192.34;4975621;28;20655;-87
2021/08/04 00:23:21;;;;;;;1.23;1.13;;;;;;;20.90;56.92;99190.19;4975413;28;20648;-87
2021/08/04 00:25:48;;;;;;;1.80;1.40;;;;;;;20.82;57.08;99190.06;4943546;28;20254;-87
2021/08/04 00:28:15;;;;;;;1.33;1.23;;;;;;;20.83;56.87;99203.41;4958973;28;20229;-87
2021/08/04 00:30:41;;;;;;;2.53;1.30;;;;;;;20.70;57.04;99181.56;4959338;28;20224;-87
2021/08/04 00:33:08;;;;;;;1.37;1.27;;;;;;;20.76;57.10;99202.16;4959501;28;20266;-87
2021/08/04 00:35:35;;;;;;;1.70;1.10;;;;;;;20.77;57.05;99201.84;4975311;28;20275;-87
2021/08/04 00:38:09;;;;;;;1.20;1.10;;;;;;;20.89;56.59;99212.28;4958281;28;20236;-87
2021/08/04 00:40:38;;;;;;;2.53;1.07;;;;;;;20.88;56.66;99207.94;4975109;28;20231;-88
2021/08/04 00:43:06;;;;;;;1.30;1.20;;;;;;;20.84;56.45;99201.47;4974910;28;20232;-88
2021/08/04 00:45:36;;;;;;;1.20;1.07;;;;;;;20.84;56.62;99193.31;4974204;28;20220;-87
2021/08/04 00:48:05;;;;;;;1.00;1.00;;;;;;;20.74;56.42;99188.84;4974533;28;20586;-88
2021/08/04 00:50:34;;;;;;;1.30;1.17;;;;;;;20.73;56.87;99200.81;4959324;28;20232;-87
2021/08/04 00:53:16;;;;;;;1.93;1.20;;;;;;;20.71;56.61;99197.59;4942605;28;20319;-88
2021/08/04 00:55:43;;;;;;;2.40;1.13;;;;;;;20.71;57.11;99205.78;4943182;28;20574;-88
2021/08/04 00:58:10;;;;;;;0.90;0.90;;;;;;;20.75;56.66;99214.97;4961472;28;20232;-88
2021/08/04 01:00:41;;;;;;;1.30;1.20;;;;;;;20.74;56.72;99212.53;4978442;28;20299;-88
2021/08/04 01:03:09;;;;;;;1.20;1.10;;;;;;;20.74;56.61;99205.16;4978055;28;20240;-87
2021/08/04 01:05:51;;;;;;;1.10;1.10;;;;;;;20.77;56.57;99225.53;4962490;28;20262;-87
2021/08/04 01:08:38;;;;;;;1.30;1.00;;;;;;;20.81;56.30;99216.47;4994059;28;20588;-87
2021/08/04 01:11:08;;;;;;;1.13;1.03;;;;;;;20.80;56.27;99214.88;4962280;28;20240;-88
2021/08/04 01:13:38;;;;;;;1.17;1.07;;;;;;;20.86;55.99;99212.88;4978435;28;20232;-88
2021/08/04 01:16:11;;;;;;;0.90;0.90;;;;;;;20.86;55.67;99213.69;4978045;28;20224;-87
2021/08/04 01:18:43;;;;;;;1.30;1.20;;;;;;;20.87;55.91;99214.50;4994399;28;20583;-87
2021/08/04 01:21:10;;;;;;;1.10;1.10;;;;;;;20.87;55.98;99196.25;5008079;28;20237;-87
2021/08/04 01:23:43;;;;;;;0.80;0.80;;;;;;;20.95;55.69;99211.13;4946100;28;20246;-87
2021/08/04 01:26:28;;;;;;;1.20;1.10;;;;;;;20.93;55.58;99208.69;4977585;28;20232;-88
2021/08/04 01:28:58;;;;;;;1.03;0.93;;;;;;;20.96;55.57;99204.53;4961840;28;20372;-88
2021/08/04 01:31:27;;;;;;;1.30;1.20;;;;;;;20.99;55.52;99207.50;4945817;28;20241;-88
2021/08/04 01:33:55;;;;;;;0.93;0.93;;;;;;;20.99;55.44;99203.97;4946008;28;20287;-87
2021/08/04 01:36:22;;;;;;;0.87;0.87;;;;;;;20.89;55.45;99195.97;4977581;28;20235;-88
2021/08/04 01:38:50;;;;;;;1.20;1.10;;;;;;;20.94;55.36;99209.50;4961257;28;20328;-88
2021/08/04 01:41:18;;;;;;;1.27;1.00;;;;;;;20.89;55.47;99212.28;4959265;28;20329;-85
2021/08/04 01:43:46;;;;;;;1.10;1.00;;;;;;;20.84;56.00;99207.75;4943330;28;20292;-88
2021/08/04 01:46:13;;;;;;;1.07;1.00;;;;;;;20.83;56.20;99217.00;4976321;28;20707;-88
2021/08/04 01:48:41;;;;;;;1.03;0.93;;;;;;;20.85;56.25;99209.38;4945005;28;20527;-88
2021/08/04 01:51:10;;;;;;;1.50;1.07;;;;;;;20.86;55.55;99216.41;4961116;28;20313;-88
2021/08/04 01:53:38;;;;;;;1.23;0.97;;;;;;;20.79;55.84;99201.56;4976609;28;20514;-85
2021/08/04 01:56:05;;;;;;;1.30;1.00;;;;;;;20.87;55.74;99195.44;4944689;28;20235;-89
2021/08/04 01:58:32;;;;;;;2.30;1.03;;;;;;;20.78;56.44;99194.50;4977211;28;20582;-89
2021/08/04 02:01:00;;;;;;;1.30;1.07;;;;;;;20.66;56.58;99189.53;4993156;28;20232;-89
2021/08/04 02:03:27;;;;;;;1.13;1.03;;;;;;;20.63;56.83;99190.09;4943716;28;20644;-89
2021/08/04 02:05:54;;;;;;;1.07;1.00;;;;;;;20.65;57.37;99190.63;4977848;28;20236;-87
2021/08/04 02:08:43;;;;;;;1.30;1.20;;;;;;;20.66;57.51;99192.25;4991398;28;20321;-87
2021/08/04 02:11:17;;;;;;;1.37;1.27;;;;;;;20.59;57.63;99189.88;4944557;28;20244;-88
2021/08/04 02:14:08;;;;;;;1.20;1.10;;;;;;;20.54;57.96;99192.69;4976468;28;20288;-86
2021/08/04 02:16:59;;;;;;;1.07;1.00;;;;;;;20.49;58.62;99195.47;4976309;28;20317;-88
2021/08/04 02:19:36;;;;;;;3.50;1.37;;;;;;;20.37;59.78;99195.13;4976676;28;20647;-88
2021/08/04 02:22:11;;;;;;;1.00;0.90;;;;;;;20.35;59.73;99200.03;4944215;28;20240;-89
2021/08/04 02:24:45;;;;;;;1.30;1.20;;;;;;;20.20;60.08;99190.13;4976006;28;20579;-88
2021/08/04 02:27:12;;;;;;;1.53;1.10;;;;;;;20.11;60.55;99188.41;4944208;28;20251;-87
2021/08/04 02:29:41;;;;;;;2.07;1.20;;;;;;;20.08;60.48;99183.53;4944584;28;20319;-89
2021/08/04 02:32:08;;;;;;;1.23;1.20;;;;;;;20.03;60.31;99176.25;4943711;28;20284;-89
2021/08/04 02:34:35;;;;;;;3.10;1.40;;;;;;;20.05;60.11;99181.41;4960177;28;20315;-89
2021/08/04 02:37:02;;;;;;;1.17;1.07;;;;;;;19.96;60.04;99192.13;4976065;28;20582;-87
2021/08/04 02:39:29;;;;;;;1.57;1.27;;;;;;;19.81;60.66;99194.19;4943846;28;20232;-88
2021/08/04 02:41:56;;;;;;;1.50;1.40;;;;;;;19.72;61.33;99200.28;4959920;28;20636;-89
2021/08/04 02:44:23;;;;;;;1.40;1.30;;;;;;;19.53;61.66;99185.81;4959776;28;20242;-89
2021/08/04 02:46:51;;;;;;;1.43;1.33;;;;;;;19.43;62.16;99185.91;4959992;28;20553;-89
2021/08/04 02:49:18;;;;;;;1.73;1.30;;;;;;;19.35;62.39;99191.97;4943756;28;20574;-90
2021/08/04 02:51:45;;;;;;;1.67;1.30;;;;;;;19.26;62.30;99188.25;4960128;28;20232;-90
2021/08/04 02:54:17;;;;;;;1.80;1.30;;;;;;;19.27;62.75;99206.97;4975383;28;20602;-88
2021/08/04 02:56:45;;;;;;;1.87;1.10;;;;;;;19.17;63.01;99207.09;5008391;28;20287;-89
2021/08/04 02:59:11;;;;;;;1.37;1.27;;;;;;;19.13;63.20;99211.44;4991831;28;20259;-89
2021/08/04 03:01:38;;;;;;;1.30;1.20;;;;;;;19.13;63.31;99211.44;4975570;28;20255;-89
2021/08/04 03:04:05;;;;;;;1.40;1.30;;;;;;;19.11;63.05;99220.97;4975059;28;20643;-89
2021/08/04 03:06:32;;;;;;;1.93;1.20;;;;;;;19.01;63.89;99223.78;4959344;28;20232;-90
2021/08/04 03:08:59;;;;;;;1.40;1.30;;;;;;;19.00;64.37;99233.00;4991586;28;20232;-87
2021/08/04 03:11:26;;;;;;;1.83;1.50;;;;;;;18.87;64.53;99237.19;4943914;28;20239;-90
2021/08/04 03:13:53;;;;;;;2.73;1.20;;;;;;;18.77;64.69;99224.50;4975507;28;20236;-89
2021/08/04 03:16:20;;;;;;;1.70;1.60;;;;;;;18.73;65.18;99223.44;4959076;28;20263;-89
2021/08/04 03:18:46;;;;;;;1.60;1.20;;;;;;;18.74;65.47;99235.13;4959313;28;20224;-90
2021/08/04 03:21:13;;;;;;;1.50;1.40;;;;;;;18.56;65.99;99236.59;4975570;28;20228;-89
2021/08/04 03:23:40;;;;;;;1.30;1.20;;;;;;;18.56;66.08;99233.06;4975174;28;20224;-88
2021/08/04 03:26:07;;;;;;;2.17;1.60;;;;;;;18.47;66.71;99222.78;4990758;28;20231;-89
2021/08/04 03:28:34;;;;;;;1.60;1.50;;;;;;;18.42;66.40;99211.97;4976121;28;20247;-89
2021/08/04 03:31:00;;;;;;;2.03;1.40;;;;;;;18.41;67.20;99210.34;4960087;28;20230;-89
2021/08/04 03:33:27;;;;;;;1.50;1.40;;;;;;;18.43;67.33;99212.75;4959790;28;20306;-90
2021/08/04 03:35:54;;;;;;;2.27;1.40;;;;;;;18.42;67.26;99217.41;4959875;28;20307;-88
2021/08/04 03:38:21;;;;;;;2.23;1.30;;;;;;;18.36;67.30;99209.56;5007412;28;20243;-89
2021/08/04 03:40:48;;;;;;;1.60;1.40;;;;;;;18.38;67.24;99218.25;4960079;28;20240;-90
2021/08/04 03:43:15;;;;;;;1.37;1.27;;;;;;;18.47;67.64;99227.41;4975871;28;20323;-90
2021/08/04 03:45:42;;;;;;;1.50;1.40;;;;;;;18.40;67.37;99219.56;4975797;28;20253;-91
2021/08/04 03:48:08;;;;;;;2.40;1.20;;;;;;;18.46;67.59;99229.31;4943497;28;20243;-89
2021/08/04 03:50:35;;;;;;;2.17;1.20;;;;;;;18.44;67.50;99226.03;4959567;28;20232;-90
2021/08/04 03:53:02;;;;;;;1.40;1.30;;;;;;;18.56;67.37;99241.22;4975654;28;20631;-91
2021/08/04 03:55:29;;;;;;;1.60;1.40;;;;;;;18.59;66.96;99240.63;4975710;28;20320;-89
2021/08/04 03:57:56;;;;;;;1.67;1.40;;;;;;;18.61;67.03;99239.28;4943923;28;20284;-90
2021/08/04 04:00:22;;;;;;;2.43;1.40;;;;;;;18.92;66.31;99265.09;4959137;28;20259;-89
2021/08/04 04:02:49;;;;;;;1.47;1.30;;;;;;;18.98;64.77;99227.06;4959639;28;20267;-90
2021/08/04 04:05:17;;;;;;;1.50;1.40;;;;;;;18.92;64.80;99223.56;4959161;28;20326;-90
2021/08/04 04:07:44;;;;;;;2.40;1.83;;;;;;;18.81;65.38;99241.84;4959179;28;20236;-89
2021/08/04 04:10:11;;;;;;;1.90;1.57;;;;;;;18.83;65.23;99233.41;4975055;28;20262;-89
2021/08/04 04:12:38;;;;;;;1.70;1.50;;;;;;;18.95;65.08;99233.03;4991792;28;20247;-89
2021/08/04 04:15:06;;;;;;;2.17;1.10;;;;;;;18.97;65.06;99228.16;4943476;28;20231;-89
2021/08/04 04:17:33;;;;;;;1.50;1.40;;;;;;;19.12;64.79;99241.63;4991480;28;20652;-89
2021/08/04 04:20:00;;;;;;;1.30;1.20;;;;;;;19.18;65.03;99229.59;4975441;28;20247;-89
2021/08/04 04:22:27;;;;;;;1.60;1.50;;;;;;;19.37;64.47;99244.09;4959295;28;20632;-90
2021/08/04 04:24:54;;;;;;;1.50;1.40;;;;;;;19.59;63.87;99247.19;4991469;28;20588;-87
2021/08/04 04:27:20;;;;;;;1.93;1.60;;;;;;;19.79;63.67;99246.13;4975648;28;20251;-89
2021/08/04 04:29:47;;;;;;;1.30;1.20;;;;;;;20.13;61.60;99254.16;4991321;28;20227;-89
2021/08/04 04:32:14;;;;;;;1.90;1.20;;;;;;;20.14;60.18;99251.16;4944831;28;20275;-89
2021/08/04 04:34:41;;;;;;;2.60;1.40;;;;;;;20.37;59.74;99246.81;4962813;28;20236;-87
2021/08/04 04:37:08;;;;;;;1.40;1.30;;;;;;;20.63;59.20;99252.69;4980340;28;20315;-89
2021/08/04 04:39:34;;;;;;;1.30;1.20;;;;;;;20.58;59.00;99236.44;4979109;28;20606;-89
2021/08/04 04:42:01;;;;;;;1.50;1.40;;;;;;;20.72;59.59;99250.13;4963096;28;20252;-89
2021/08/04 04:44:28;;;;;;;1.87;1.30;;;;;;;20.86;59.60;99240.91;4963532;28;20239;-89
2021/08/04 04:46:55;;;;;;;2.37;1.17;;;;;;;20.95;59.42;99247.28;4947509;28;20304;-89
2021/08/04 04:49:21;;;;;;;1.23;1.13;;;;;;;20.92;60.11;99245.19;4947548;28;20252;-88
2021/08/04 04:51:48;;;;;;;2.03;1.47;;;;;;;21.00;60.01;99249.94;4963051;28;20315;-90
2021/08/04 04:54:15;;;;;;;1.50;1.40;;;;;;;21.13;59.45;99253.88;4978388;28;20256;-89
2021/08/04 04:56:42;;;;;;;2.30;1.40;;;;;;;21.24;59.40;99246.31;4963096;28;20699;-89
2021/08/04 04:59:08;;;;;;;1.30;1.20;;;;;;;21.31;58.63;99252.19;4963082;28;20232;-89
2021/08/04 05:01:35;;;;;;;1.47;1.37;;;;;;;21.54;57.84;99245.78;4979135;28;20588;-88
2021/08/04 05:04:02;;;;;;;1.60;1.50;;;;;;;21.53;58.47;99250.44;4978723;28;20236;-89
2021/08/04 05:06:30;;;;;;;1.73;1.30;;;;;;;21.51;57.95;99235.47;4962951;28;20301;-89
2021/08/04 05:08:57;;;;;;;1.40;1.30;;;;;;;21.74;57.51;99253.56;4947078;28;20250;-88
2021/08/04 05:11:24;;;;;;;1.50;1.40;;;;;;;22.04;56.85;99260.41;4979019;28;20232;-87
2021/08/04 05:13:50;;;;;;;1.63;1.50;;;;;;;22.42;54.12;99271.88;4979310;28;20232;-88
2021/08/04 05:16:17;;;;;;;1.50;1.00;;;;;;;22.68;53.37;99272.13;4962161;28;20229;-89
2021/08/04 05:18:44;;;;;;;1.20;1.10;;;;;;;23.04;50.74;99272.16;4978901;28;20232;-89
2021/08/04 05:21:11;;;;;;;1.83;1.10;;;;;;;23.24;50.10;99268.91;4962575;28;20323;-87
2021/08/04 05:23:37;;;;;;;1.30;1.20;;;;;;;23.32;50.09;99267.38;4946569;28;20308;-88
2021/08/04 05:26:04;;;;;;;1.17;1.00;;;;;;;23.40;49.25;99253.75;4962242;28;20228;-88
2021/08/04 05:28:31;;;;;;;2.43;1.10;;;;;;;23.79;48.83;99255.75;4962437;28;20296;-89
2021/08/04 05:30:58;;;;;;;2.40;1.30;;;;;;;23.85;47.76;99253.66;4978526;28;20230;-88
2021/08/04 05:33:25;;;;;;;1.30;1.20;;;;;;;24.01;47.70;99250.19;4962311;28;20228;-88
2021/08/04 05:35:52;;;;;;;1.73;1.00;;;;;;;23.99;48.50;99266.13;4962497;28;20234;-89
2021/08/04 05:38:19;;;;;;;1.97;1.20;;;;;;;24.46;47.12;99264.50;4974181;28;20259;-89
2021/08/04 05:40:45;;;;;;;1.80;1.30;;;;;;;24.67;46.68;99270.19;4959011;28;20667;-87
2021/08/04 05:43:12;;;;;;;2.93;1.40;;;;;;;24.89;46.50;99264.56;4975079;28;20302;-88
2021/08/04 05:45:39;;;;;;;2.47;1.00;;;;;;;24.86;46.15;99278.94;4946107;28;20261;-87
2021/08/04 05:48:06;;;;;;;1.90;1.17;;;;;;;24.80;46.77;99282.91;4974960;28;20323;-88
2021/08/04 05:50:33;;;;;;;1.23;1.10;;;;;;;24.73;46.43;99287.28;4942686;29;20235;-87
2021/08/04 05:53:00;;;;;;;1.70;1.10;;;;;;;24.62;47.12;99289.50;4974568;28;20265;-87
2021/08/04 05:55:26;;;;;;;1.40;1.20;;;;;;;24.00;48.85;99277.88;4994151;28;20265;-87
2021/08/04 05:57:53;;;;;;;1.30;1.20;;;;;;;24.11;49.98;99279.22;4959013;28;20677;-88
2021/08/04 06:00:20;;;;;;;1.90;1.13;;;;;;;23.79;50.70;99295.97;4992915;28;20236;-87
2021/08/04 06:02:47;;;;;;;1.65;1.20;;;;;;;23.97;50.73;99294.94;4958522;28;20238;-88
2021/08/04 06:05:14;;;;;;;1.27;1.10;;;;;;;23.83;51.48;99302.44;4976114;28;20231;-87
2021/08/04 06:07:41;;;;;;;1.70;1.40;;;;;;;23.52;50.41;99294.19;4994288;28;20315;-89
2021/08/04 06:10:08;;;;;;;1.50;1.40;;;;;;;23.47;51.09;99291.63;4959171;28;20238;-89
2021/08/04 06:12:35;;;;;;;1.30;1.20;;;;;;;23.47;50.54;99286.16;4942822;29;20249;-88
2021/08/04 06:15:02;;;;;;;1.40;1.20;;;;;;;;;;4974712;28;20238;-89
2021/08/04 06:17:29;;;;;;;1.07;1.07;;;;;;;23.75;50.15;99297.72;4958718;29;20320;-89
2021/08/04 06:19:56;;;;;;;2.13;1.13;;;;;;;24.06;49.71;99295.78;4974547;28;20519;-90
2021/08/04 06:22:23;;;;;;;1.43;1.30;;;;;;;24.20;48.32;99291.03;4960986;28;20257;-90
2021/08/04 06:24:50;;;;;;;1.60;1.10;;;;;;;24.04;47.59;99285.13;4961652;28;20638;-89
2021/08/04 06:27:16;;;;;;;1.20;1.10;;;;;;;24.44;46.89;99294.16;4960577;28;20229;-89
2021/08/04 06:29:43;;;;;;;1.23;1.20;;;;;;;24.64;46.74;99298.19;4978067;28;20645;-89
2021/08/04 06:32:10;;;;;;;2.23;1.20;;;;;;;24.69;46.39;99297.22;4959278;28;20322;-89
2021/08/04 06:34:36;;;;;;;1.87;1.13;;;;;;;24.70;46.11;99293.38;4958210;28;20330;-86
2021/08/04 06:37:03;;;;;;;1.63;1.10;;;;;;;24.91;44.39;99291.66;4958147;28;20315;-88
2021/08/04 06:39:30;;;;;;;1.27;1.10;;;;;;;24.55;43.24;99281.75;4957471;28;20235;-88
2021/08/04 06:42:12;;;;;;;1.50;1.00;;;;;;;24.52;44.07;99306.25;4958878;28;20655;-89
2021/08/04 06:44:38;;;;;;;0.90;0.90;;;;;;;24.34;44.00;99291.72;4978222;28;20258;-89
2021/08/04 06:47:06;;;;;;;1.27;0.90;;;;;;;24.43;43.61;99300.75;4942680;28;20714;-88
2021/08/04 06:49:33;;;;;;;1.20;1.10;;;;;;;24.63;43.03;99304.00;4973650;28;20255;-89
2021/08/04 06:52:00;;;;;;;1.13;1.03;;;;;;;24.53;42.86;99313.34;4973542;28;20321;-89
2021/08/04 06:54:26;;;;;;;0.90;0.90;;;;;;;24.63;43.12;99306.75;4960429;28;20635;-89
2021/08/04 06:56:53;;;;;;;1.50;1.03;;;;;;;24.43;43.89;99311.69;4957425;28;20240;-88
2021/08/04 06:59:20;;;;;;;1.20;1.10;;;;;;;24.56;43.30;99312.69;4994564;28;20274;-88
2021/08/04 07:01:47;;;;;;;1.10;1.00;;;;;;;24.48;43.66;99308.00;4966550;28;20225;-89
2021/08/04 07:04:14;;;;;;;1.10;1.00;;;;;;;24.27;44.03;99305.03;4982433;28;20700;-88
2021/08/04 07:06:51;;;;;;;0.90;0.90;;;;;;;24.46;43.49;99319.28;5001689;28;20253;-89
2021/08/04 07:09:18;;;;;;;0.97;0.90;;;;;;;24.58;44.00;99309.63;4953788;28;20589;-89
2021/08/04 07:11:45;;;;;;;1.20;1.10;;;;;;;24.71;43.75;99305.94;4949848;28;20307;-89
2021/08/04 07:14:12;;;;;;;0.90;0.90;;;;;;;24.98;43.41;99324.84;4986725;28;20525;-89
2021/08/04 07:16:39;;;;;;;1.20;1.10;;;;;;;25.01;43.24;99315.97;4996041;28;20235;-87
2021/08/04 07:19:06;;;;;;;1.67;0.90;;;;;;;24.76;43.13;99314.00;5011971;28;20229;-90
2021/08/04 07:21:33;;;;;;;1.03;1.00;;;;;;;25.11;42.70;99315.66;5011886;28;20291;-89
2021/08/04 07:23:59;;;;;;;1.02;0.90;;;;;;;25.38;42.34;99307.09;4995603;28;20234;-88
2021/08/04 07:26:26;;;;;;;1.58;0.82;;;;;;;25.38;42.14;99317.28;5008589;28;20231;-90
2021/08/04 07:28:53;;;;;;;0.98;0.98;;;;;;;25.18;42.37;99324.22;4991542;28;20262;-89
2021/08/04 07:31:20;;;;;;;0.90;0.90;;;;;;;24.68;42.89;99314.81;5012072;28;20285;-90
2021/08/04 07:33:47;;;;;;;1.05;0.88;;;;;;;24.65;42.89;99319.00;5011897;28;20238;-90
2021/08/04 07:36:14;;;;;;;2.10;1.00;;;;;;;24.68;43.41;99317.56;4977414;28;20647;-87
2021/08/04 07:38:40;;;;;;;1.00;0.90;;;;;;;24.79;43.57;99322.41;5011543;28;20241;-86
2021/08/04 07:41:07;;;;;;;1.00;0.90;;;;;;;24.80;43.10;99309.50;4976754;28;20288;-87
2021/08/04 07:43:34;;;;;;;1.90;1.10;;;;;;;24.90;42.77;99317.44;4959964;28;20253;-88
2021/08/04 07:46:01;;;;;;;1.33;0.90;;;;;;;24.66;43.39;99317.06;4959490;28;20240;-87
2021/08/04 07:48:28;;;;;;;0.93;0.90;;;;;;;25.12;43.00;99324.69;4991641;28;20539;-87
2021/08/04 07:50:56;;;;;;;2.43;1.20;;;;;;;25.05;42.70;99329.88;4991734;28;20235;-87
2021/08/04 07:53:23;;;;;;;0.80;0.80;;;;;;;25.23;42.85;99320.50;5010118;28;20318;-87
2021/08/04 07:55:49;;;;;;;0.83;0.83;;;;;;;24.78;42.81;99320.78;4995135;28;20327;-87
2021/08/04 07:58:16;;;;;;;1.10;0.90;;;;;;;25.10;42.41;99322.31;5026882;28;20262;-87
2021/08/04 08:00:43;;;;;;;1.57;1.17;;;;;;;24.94;42.75;99329.38;4991522;28;20302;-87
2021/08/04 08:03:10;;;;;;;2.40;1.10;;;;;;;25.07;42.94;99327.59;4960293;28;20352;-87
2021/08/04 08:05:37;;;;;;;1.30;1.10;;;;;;;25.10;42.54;99332.47;5026486;28;20231;-87
2021/08/04 08:08:05;;;;;;;1.30;1.20;;;;;;;25.10;43.02;99333.25;4990476;28;20289;-85
2021/08/04 08:10:33;;;;;;;2.00;1.00;;;;;;;25.09;42.92;99334.38;5010587;28;20259;-86
2021/08/04 08:13:00;;;;;;;1.43;0.90;;;;;;;25.40;42.65;99342.44;4959202;28;20260;-86
2021/08/04 08:15:27;;;;;;;1.47;1.13;;;;;;;25.37;41.76;99319.22;4975318;28;20673;-86
2021/08/04 08:17:53;;;;;;;1.00;1.00;;;;;;;25.50;41.63;99333.06;4959126;28;20228;-86
2021/08/04 08:20:20;;;;;;;2.90;1.33;;;;;;;25.24;41.82;99338.59;4993240;28;20241;-85
2021/08/04 08:22:48;;;;;;;1.13;1.00;;;;;;;25.75;41.15;99332.25;4991103;28;20305;-90
2021/08/04 08:25:17;;;;;;;1.13;1.00;;;;;;;25.80;40.61;99323.84;4993116;28;20231;-88
2021/08/04 08:27:45;;;;;;;1.83;1.00;;;;;;;26.27;40.32;99327.38;5010519;28;20284;-86
2021/08/04 08:30:13;;;;;;;1.27;1.10;;;;;;;26.30;40.18;99334.97;4991807;28;20945;-88
2021/08/04 08:32:40;;;;;;;1.10;1.00;;;;;;;26.51;39.45;99327.59;4994583;28;20281;-88
2021/08/04 08:35:08;;;;;;;1.02;0.98;;;;;;;26.06;40.13;99319.06;4942376;28;20240;-87
2021/08/04 08:37:35;;;;;;;1.15;1.10;;;;;;;25.89;41.08;99332.06;4992364;28;20294;-87
2021/08/04 08:40:02;;;;;;;1.30;1.20;;;;;;;26.55;39.49;99328.53;4988768;28;20323;-87
2021/08/04 08:42:29;;;;;;;1.25;1.10;;;;;;;26.23;40.69;99324.50;4985473;28;20234;-85
2021/08/04 08:44:58;;;;;;;1.20;1.10;;;;;;;26.02;40.46;99322.78;4993156;28;20318;-87
2021/08/04 08:47:24;;;;;;;1.33;1.10;;;;;;;26.32;40.96;99320.94;5010121;28;20243;-85
2021/08/04 08:49:51;;;;;;;1.25;1.15;;;;;;;26.14;40.89;99314.66;4994494;28;20239;-87
2021/08/04 08:52:19;;;;;;;1.30;1.20;;;;;;;26.43;40.60;99314.72;4991410;28;20233;-87
2021/08/04 08:54:45;;;;;;;1.17;1.08;;;;;;;26.94;39.84;99318.28;4992938;28;20281;-88
2021/08/04 08:57:12;;;;;;;1.45;1.30;;;;;;;27.25;39.82;99318.66;5025025;28;20252;-87
2021/08/04 08:59:39;;;;;;;1.38;1.27;;;;;;;26.89;39.89;99311.03;5008999;28;20255;-87
2021/08/04 09:02:06;;;;;;;1.77;1.30;;;;;;;26.99;39.45;99320.84;5009150;28;20234;-87
2021/08/04 09:04:33;;;;;;;1.42;1.17;;;;;;;27.52;39.00;99312.63;5009422;28;20236;-87
2021/08/04 09:07:01;;;;;;;1.30;1.20;;;;;;;27.38;38.13;99323.09;4974316;28;20274;-88
2021/08/04 09:09:30;;;;;;;1.27;1.17;;;;;;;27.64;37.97;99311.03;4984091;28;20260;-87
2021/08/04 09:12:10;;;;;;;2.63;1.75;;;;;;;28.44;37.05;99315.75;5026217;28;20257;-87
2021/08/04 09:14:42;;;;;;;1.40;1.30;;;;;;;27.59;38.18;99312.06;4987459;28;20227;-87
2021/08/04 09:17:14;;;;;;;2.85;1.27;;;;;;;28.00;37.92;99309.16;4993543;28;20232;-86
2021/08/04 09:19:46;;;;;;;1.98;1.73;;;;;;;27.79;38.36;99308.47;4976942;28;20233;-87
2021/08/04 09:22:20;;;;;;;1.60;1.40;;;;;;;28.15;37.65;99315.19;4978081;28;20320;-87
2021/08/04 09:24:55;;;;;;;2.70;1.50;;;;;;;28.16;37.80;99298.31;4977606;28;20296;-86
2021/08/04 09:27:40;;;;;;;1.48;1.38;;;;;;;27.73;38.56;99303.50;4996313;28;20230;-87
2021/08/04 09:30:09;;;;;;;1.50;1.40;;;;;;;28.68;37.55;99305.88;4978141;28;20239;-86
2021/08/04 09:32:36;;;;;;;1.67;1.23;;;;;;;29.23;36.34;99307.91;4980980;28;20574;-86
2021/08/04 09:35:14;;;;;;;1.30;1.20;;;;;;;28.04;38.65;99306.56;4978212;28;20219;-87
2021/08/04 09:37:42;;;;;;;2.08;1.50;;;;;;;28.58;37.74;99307.13;4969038;28;20245;-85
2021/08/04 09:40:11;;;;;;;2.63;1.33;;;;;;;28.85;36.72;99317.47;4941827;29;20226;-86
2021/08/04 09:42:50;;;;;;;1.45;1.35;;;;;;;28.92;36.74;99310.56;4974266;28;20275;-86
2021/08/04 09:45:23;;;;;;;1.42;1.30;;;;;;;29.21;36.41;99311.00;4957999;29;20263;-85
2021/08/04 09:48:11;;;;;;;1.30;1.20;;;;;;;28.79;35.43;99309.75;4942536;29;20250;-86
2021/08/04 09:50:54;;;;;;;1.67;1.33;;;;;;;28.03;36.89;99308.50;4973559;28;20587;-87
2021/08/04 09:53:30;;;;;;;1.40;1.30;;;;;;;28.84;37.75;99312.28;4926703;29;20261;-86
2021/08/04 09:56:09;;;;;;;1.88;1.40;;;;;;;28.67;36.37;99310.56;4974385;28;20260;-85
2021/08/04 09:58:41;;;;;;;1.40;1.30;;;;;;;28.48;37.42;99309.56;4958716;29;20292;-86
2021/08/04 10:01:11;;;;;;;1.40;1.30;;;;;;;28.49;36.87;99305.66;4958066;28;20319;-87
2021/08/04 10:03:38;;;;;;;1.73;1.20;;;;;;;28.88;36.43;99305.72;4973420;28;20321;-86
2021/08/04 10:06:05;;;;;;;1.50;1.40;;;;;;;29.29;35.65;99314.81;4973189;28;20238;-86
2021/08/04 10:08:52;;;;;;;1.65;1.27;;;;;;;29.02;35.67;99319.16;4973317;28;20280;-85
2021/08/04 10:11:19;;;;;;;1.77;1.30;;;;;;;28.98;35.47;99311.91;4973915;28;20637;-86
2021/08/04 10:13:46;;;;;;;2.00;1.45;;;;;;;29.51;34.92;99316.22;4973955;28;20322;-86
2021/08/04 10:16:12;;;;;;;1.23;1.20;;;;;;;29.23;35.55;99296.88;4973301;28;20247;-86
2021/08/04 10:18:40;;;;;;;1.77;1.40;;;;;;;29.06;36.73;99288.91;4941739;29;20308;-87
2021/08/04 10:21:12;;;;;;;2.92;1.48;;;;;;;29.47;35.52;99301.53;4925768;29;20260;-85
2021/08/04 10:23:40;;;;;;;2.42;1.50;;;;;;;30.11;34.74;99309.53;4973214;28;20583;-85
2021/08/04 10:26:12;;;;;;;1.83;1.52;;;;;;;29.71;35.02;99304.16;4957025;29;20236;-86
2021/08/04 10:28:42;;;;;;;1.50;1.40;;;;;;;29.00;36.27;99302.13;4941434;28;20635;-85
2021/08/04 10:31:10;;;;;;;1.50;1.40;;;;;;;28.91;35.81;99293.22;4957206;28;20235;-86
2021/08/04 10:33:39;;;;;;;1.55;1.45;;;;;;;28.98;35.66;99290.66;4973262;28;20247;-85
2021/08/04 10:36:09;;;;;;;1.60;1.50;;;;;;;29.17;35.19;99278.97;4956491;29;20284;-86
2021/08/04 10:38:40;;;;;;;2.08;1.50;;;;;;;29.61;35.25;99288.09;4925582;29;20235;-86
2021/08/04 10:41:13;;;;;;;1.60;1.50;;;;;;;28.91;36.70;99284.94;4941484;29;20625;-86
2021/08/04 10:43:53;;;;;;;2.33;1.52;;;;;;;28.50;37.32;99269.50;4973294;28;20240;-86
2021/08/04 10:46:31;;;;;;;1.50;1.40;;;;;;;28.62;37.33;99274.16;4940790;29;20246;-85
2021/08/04 10:49:04;;;;;;;1.95;1.80;;;;;;;27.98;37.87;99269.38;4956959;29;20653;-86
2021/08/04 10:51:35;;;;;;;1.63;1.52;;;;;;;28.10;37.84;99258.34;4958301;29;20224;-86
2021/08/04 10:54:01;;;;;;;2.55;1.70;;;;;;;27.83;37.10;99276.34;4972457;28;20325;-86
2021/08/04 10:56:32;;;;;;;2.05;1.33;;;;;;;29.00;36.67;99277.31;4973619;28;20234;-86
2021/08/04 10:59:26;;;;;;;2.45;1.60;;;;;;;28.67;37.37;99268.41;4958308;29;20255;-86
2021/08/04 11:01:54;;;;;;;1.63;1.52;;;;;;;29.04;37.40;99269.94;4940634;29;20239;-87
2021/08/04 11:04:27;;;;;;;1.52;1.42;;;;;;;29.54;34.91;99274.09;4956948;28;20247;-86
2021/08/04 11:07:06;;;;;;;1.80;1.45;;;;;;;29.25;34.56;99270.56;4973548;28;20311;-85
2021/08/04 11:09:37;;;;;;;1.90;1.70;;;;;;;29.55;35.17;99276.53;4957923;29;20718;-86
2021/08/04 11:12:06;;;;;;;2.72;1.60;;;;;;;29.89;34.47;99269.56;4956705;28;20293;-87
2021/08/04 11:14:43;;;;;;;1.58;1.48;;;;;;;29.50;35.01;99271.25;4925694;29;20300;-86
2021/08/04 11:17:13;;;;;;;1.83;1.65;;;;;;;29.95;34.04;99253.53;4957987;29;20299;-85
2021/08/04 11:20:10;;;;;;;1.70;1.60;;;;;;;30.69;32.63;99260.81;4973160;28;20542;-84
2021/08/04 11:22:43;;;;;;;1.45;1.35;;;;;;;29.71;33.29;99247.00;4905224;29;20585;-86
2021/08/04 11:25:31;;;;;;;2.03;1.60;;;;;;;29.67;34.11;99248.06;4956609;29;20237;-85
2021/08/04 11:27:58;;;;;;;1.60;1.50;;;;;;;28.75;36.53;99254.53;4957436;29;20650;-85
2021/08/04 11:30:36;;;;;;;2.58;1.35;;;;;;;29.09;34.99;99250.41;4956139;29;20238;-85
2021/08/04 11:33:35;;;;;;;1.60;1.50;;;;;;;29.92;33.94;99249.50;4940796;28;20241;-85
2021/08/04 11:36:16;;;;;;;2.35;1.70;;;;;;;29.24;33.00;99237.81;4913624;29;20568;-85
2021/08/04 11:38:54;;;;;;;1.65;1.55;;;;;;;29.94;33.60;99238.09;4956039;29;20266;-84
2021/08/04 11:41:32;;;;;;;1.50;1.40;;;;;;;30.57;31.90;99244.34;4939492;29;20326;-85
2021/08/04 11:44:10;;;;;;;2.58;1.70;;;;;;;32.22;28.70;99229.31;4972403;28;20791;-85